Time;durP1;ratioP1;P1;durP2;ratioP2;P2;SDS_P1;SDS_P2;PMS_P1;PMS_P2;Temp;Humidity;BMP_temperature;BMP_pressure;BME280_temperature;BME280_humidity;BME280_pressure;Samples;Min_cycle;Max_cycle;Signal;HPM_P1;HPM_P2
2021/04/15 00:00:59;;;;;;;2.10;1.27;;;10.70;89.20;;;;;;4978810;28;20038;-77
2021/04/15 00:03:30;;;;;;;1.50;1.15;;;10.70;89.40;;;;;;4983123;28;20340;-76
2021/04/15 00:06:00;;;;;;;2.45;1.70;;;10.70;89.40;;;;;;4983025;28;20047;-77
2021/04/15 00:08:30;;;;;;;3.33;1.83;;;10.70;90.90;;;;;;4982103;28;20046;-77
2021/04/15 00:10:59;;;;;;;2.95;1.52;;;10.60;91.80;;;;;;4975853;28;20042;-77
2021/04/15 00:13:29;;;;;;;2.72;1.55;;;10.60;91.80;;;;;;4962296;28;20053;-77
2021/04/15 00:15:58;;;;;;;4.32;1.40;;;10.60;91.30;;;;;;4946474;28;20570;-77
2021/04/15 00:18:27;;;;;;;2.03;1.50;;;10.70;90.70;;;;;;4963101;28;20058;-77
2021/04/15 00:20:56;;;;;;;2.47;1.50;;;10.70;90.80;;;;;;4983298;28;20046;-77
2021/04/15 00:23:24;;;;;;;2.35;1.60;;;10.70;91.40;;;;;;4979617;28;20042;-77
2021/04/15 00:25:54;;;;;;;2.33;1.40;;;10.70;91.60;;;;;;4985836;28;20034;-77
2021/04/15 00:28:22;;;;;;;3.72;1.80;;;10.70;91.50;;;;;;4960433;28;20173;-77
2021/04/15 00:30:51;;;;;;;1.70;1.20;;;10.80;91.30;;;;;;4981674;28;20030;-77
2021/04/15 00:33:20;;;;;;;2.53;1.58;;;10.80;91.20;;;;;;4982249;28;20046;-77
2021/04/15 00:35:49;;;;;;;2.45;1.33;;;10.70;91.20;;;;;;4983729;28;20038;-77
2021/04/15 00:38:21;;;;;;;1.67;1.20;;;10.70;91.30;;;;;;4958002;28;20042;-77
2021/04/15 00:40:50;;;;;;;1.55;1.20;;;10.60;91.40;;;;;;4993338;28;20065;-77
2021/04/15 00:43:21;;;;;;;2.03;1.50;;;10.60;91.60;;;;;;4982926;28;20077;-77
2021/04/15 00:45:49;;;;;;;2.05;1.42;;;10.60;91.50;;;;;;4989161;28;20042;-77
2021/04/15 00:48:29;;;;;;;2.97;1.27;;;10.60;91.70;;;;;;4971713;28;20073;-77
2021/04/15 00:51:00;;;;;;;2.42;1.60;;;10.60;91.70;;;;;;4978020;28;20354;-77
2021/04/15 00:53:32;;;;;;;2.13;1.50;;;10.60;91.20;;;;;;4976268;28;20058;-77
2021/04/15 00:56:01;;;;;;;2.72;2.10;;;10.50;91.50;;;;;;4995505;28;20048;-77
2021/04/15 00:58:31;;;;;;;3.78;1.42;;;10.60;91.40;;;;;;4965918;28;20128;-77
2021/04/15 01:01:00;;;;;;;2.45;1.70;;;10.50;91.50;;;;;;4977417;28;20133;-77
2021/04/15 01:03:28;;;;;;;2.55;1.50;;;10.50;91.60;;;;;;4997134;28;20423;-77
2021/04/15 01:05:57;;;;;;;1.85;1.33;;;10.40;92.00;;;;;;4974457;28;20411;-77
2021/04/15 01:08:25;;;;;;;2.83;1.38;;;10.40;92.00;;;;;;4981452;28;20046;-77
2021/04/15 01:11:01;;;;;;;3.97;1.77;;;10.50;92.10;;;;;;4981728;28;20467;-77
2021/04/15 01:13:46;;;;;;;1.95;1.40;;;10.30;92.40;;;;;;4990808;28;20049;-76
2021/04/15 01:16:25;;;;;;;3.92;1.35;;;10.30;92.90;;;;;;4977082;28;20042;-76
2021/04/15 01:19:02;;;;;;;2.28;1.52;;;10.30;93.20;;;;;;4993456;28;20038;-76
2021/04/15 01:21:46;;;;;;;;;;;10.20;93.60;;;;;;4976745;28;20043;-77
2021/04/15 01:24:21;;;;;;;2.63;1.55;;;10.20;93.80;;;;;;4965277;28;19929;-77
2021/04/15 01:27:28;;;;;;;2.92;1.38;;;10.10;94.30;;;;;;4981279;28;20404;-77
2021/04/15 01:30:15;;;;;;;1.95;1.40;;;10.10;94.40;;;;;;4971316;28;20065;-76
2021/04/15 01:32:59;;;;;;;1.92;1.15;;;10.00;94.10;;;;;;4972199;28;20046;-77
2021/04/15 01:35:31;;;;;;;2.40;1.10;;;9.90;94.70;;;;;;4982252;28;20060;-77
2021/04/15 01:38:05;;;;;;;2.70;1.40;;;9.90;94.50;;;;;;4982462;28;20043;-77
2021/04/15 01:40:38;;;;;;;2.33;1.60;;;9.90;94.60;;;;;;5002874;28;20529;-77
2021/04/15 01:43:16;;;;;;;1.70;1.27;;;9.90;94.70;;;;;;5002061;28;20361;-77
2021/04/15 01:45:47;;;;;;;2.50;1.55;;;9.90;94.70;;;;;;4984986;28;20263;-77
2021/04/15 01:48:21;;;;;;;3.08;1.52;;;9.90;94.60;;;;;;4977727;28;20834;-77
2021/04/15 01:50:54;;;;;;;1.90;1.55;;;9.80;94.90;;;;;;4990558;28;20160;-77
2021/04/15 01:53:26;;;;;;;2.35;1.65;;;9.90;94.70;;;;;;4985130;28;20038;-76
2021/04/15 01:56:00;;;;;;;2.35;1.58;;;9.90;94.40;;;;;;4980218;28;20114;-76
2021/04/15 01:58:33;;;;;;;1.85;1.50;;;10.00;94.30;;;;;;4977061;28;20154;-76
2021/04/15 02:01:08;;;;;;;1.75;1.40;;;9.90;93.90;;;;;;4987881;28;20168;-76
2021/04/15 02:03:38;;;;;;;3.90;1.55;;;9.80;94.60;;;;;;4992408;28;20042;-77
2021/04/15 02:06:09;;;;;;;2.55;1.60;;;9.90;94.60;;;;;;4998188;28;20037;-76
2021/04/15 02:08:43;;;;;;;3.63;2.00;;;9.80;94.60;;;;;;4967604;28;20092;-76
2021/04/15 02:11:20;;;;;;;2.17;1.55;;;9.80;94.50;;;;;;4963591;28;20426;-77
2021/04/15 02:13:47;;;;;;;;;;;9.90;94.50;;;;;;4995398;28;20049;-77
2021/04/15 02:16:20;;;;;;;1.60;1.50;;;9.90;94.80;;;;;;4967203;28;20347;-77
2021/04/15 02:18:51;;;;;;;4.63;1.75;;;9.90;94.60;;;;;;4968557;28;20050;-76
2021/04/15 02:21:38;;;;;;;2.80;1.50;;;9.70;94.70;;;;;;4977244;28;20046;-76
2021/04/15 02:24:10;;;;;;;1.60;1.33;;;9.60;95.80;;;;;;4998358;28;20129;-77
2021/04/15 02:26:41;;;;;;;4.43;2.80;;;9.60;95.80;;;;;;4983669;28;20464;-77
2021/04/15 02:29:15;;;;;;;3.70;1.80;;;9.60;95.90;;;;;;4986002;28;20491;-77
2021/04/15 02:31:48;;;;;;;1.92;1.70;;;9.70;95.90;;;;;;4982696;28;20140;-77
2021/04/15 02:34:21;;;;;;;2.20;1.42;;;9.70;95.70;;;;;;4990550;28;20393;-77
2021/04/15 02:36:55;;;;;;;2.72;1.83;;;9.70;95.70;;;;;;4977763;28;20053;-77
2021/04/15 02:39:27;;;;;;;2.40;1.50;;;9.70;95.70;;;;;;5001109;28;20076;-76
2021/04/15 02:41:56;;;;;;;2.63;1.80;;;9.60;95.90;;;;;;4976858;28;20849;-77
2021/04/15 02:44:29;;;;;;;2.75;1.63;;;9.70;95.60;;;;;;4968805;28;20050;-77
2021/04/15 02:47:03;;;;;;;3.78;1.98;;;9.60;95.60;;;;;;4977562;28;20054;-76
2021/04/15 02:49:33;;;;;;;2.60;1.40;;;9.60;95.60;;;;;;4991381;28;20101;-77
2021/04/15 02:52:03;;;;;;;3.17;1.48;;;9.70;95.50;;;;;;4985391;28;20038;-76
2021/04/15 02:54:34;;;;;;;5.20;1.50;;;9.70;95.10;;;;;;4990780;28;20053;-77
2021/04/15 02:57:11;;;;;;;1.70;1.45;;;9.60;95.30;;;;;;4978729;28;20592;-76
2021/04/15 02:59:44;;;;;;;2.33;1.30;;;9.60;95.50;;;;;;4980875;28;20038;-77
2021/04/15 03:02:17;;;;;;;2.22;1.40;;;9.60;95.20;;;;;;4989851;28;20057;-76
2021/04/15 03:04:51;;;;;;;2.95;1.45;;;9.70;95.40;;;;;;4982974;28;20050;-76
2021/04/15 03:07:21;;;;;;;2.92;1.20;;;9.60;95.30;;;;;;4984530;28;20092;-76
2021/04/15 03:09:50;;;;;;;1.83;1.05;;;9.60;95.40;;;;;;4977814;28;20500;-76
2021/04/15 03:12:21;;;;;;;2.33;1.13;;;9.70;94.80;;;;;;4969934;28;20052;-77
2021/04/15 03:14:52;;;;;;;3.40;1.38;;;9.60;95.00;;;;;;4980860;28;20082;-76
2021/04/15 03:17:24;;;;;;;2.45;1.50;;;9.70;94.50;;;;;;4981930;28;20046;-76
2021/04/15 03:19:56;;;;;;;1.23;1.02;;;9.70;94.00;;;;;;4979603;28;20042;-77
2021/04/15 03:22:30;;;;;;;1.48;1.00;;;9.80;93.70;;;;;;4998869;28;20136;-77
2021/04/15 03:24:59;;;;;;;1.73;1.08;;;9.80;93.70;;;;;;4983645;28;20057;-77
2021/04/15 03:27:33;;;;;;;2.00;1.17;;;9.60;94.70;;;;;;4991230;28;20050;-77
2021/04/15 03:30:07;;;;;;;2.58;1.30;;;9.70;94.70;;;;;;4976304;28;20057;-77
2021/04/15 03:32:40;;;;;;;1.92;1.00;;;9.70;94.60;;;;;;5000379;28;20167;-76
2021/04/15 03:35:14;;;;;;;1.58;1.23;;;9.70;94.60;;;;;;4996922;28;20030;-76
2021/04/15 03:37:53;;;;;;;2.70;1.30;;;9.70;94.70;;;;;;4972774;28;20124;-77
2021/04/15 03:40:25;;;;;;;1.35;0.95;;;9.70;94.90;;;;;;4979664;28;20062;-77
2021/04/15 03:42:58;;;;;;;1.45;0.90;;;9.70;95.10;;;;;;4964296;28;20052;-76
2021/04/15 03:45:31;;;;;;;2.40;1.20;;;9.70;94.90;;;;;;4995599;28;20308;-76
2021/04/15 03:48:03;;;;;;;2.67;1.35;;;9.60;95.10;;;;;;4981840;28;20137;-76
2021/04/15 03:50:41;;;;;;;3.28;1.88;;;9.60;95.50;;;;;;4992490;28;20063;-76
2021/04/15 03:53:13;;;;;;;2.20;1.20;;;9.60;96.10;;;;;;4994914;28;20038;-76
2021/04/15 03:55:44;;;;;;;1.77;1.15;;;9.60;95.80;;;;;;4973944;28;20045;-76
2021/04/15 03:58:17;;;;;;;1.48;1.05;;;9.50;96.70;;;;;;4979606;28;20073;-75
2021/04/15 04:00:50;;;;;;;2.90;1.40;;;9.50;96.70;;;;;;4976977;28;20609;-76
2021/04/15 04:03:22;;;;;;;1.92;1.30;;;9.40;96.70;;;;;;4998613;28;20034;-76
2021/04/15 04:05:56;;;;;;;1.92;1.38;;;9.50;96.70;;;;;;4991558;28;20550;-76
2021/04/15 04:08:38;;;;;;;1.30;1.15;;;9.40;96.70;;;;;;4978898;28;20136;-76
2021/04/15 04:11:08;;;;;;;1.88;1.42;;;9.40;96.70;;;;;;4963114;28;20052;-76
2021/04/15 04:13:39;;;;;;;1.98;1.48;;;9.40;96.70;;;;;;4975710;28;20162;-76
2021/04/15 04:16:15;;;;;;;2.30;1.48;;;9.40;96.20;;;;;;4978674;28;20503;-76
2021/04/15 04:18:51;;;;;;;1.88;1.30;;;9.50;96.40;;;;;;4994943;28;20518;-76
2021/04/15 04:21:25;;;;;;;2.20;1.42;;;9.60;96.00;;;;;;4995358;28;20056;-76
2021/04/15 04:23:59;;;;;;;2.75;1.20;;;9.60;96.00;;;;;;4995033;28;20042;-76
2021/04/15 04:26:31;;;;;;;2.72;1.50;;;9.60;96.10;;;;;;4963136;28;20375;-77
2021/04/15 04:29:21;;;;;;;2.30;1.20;;;9.60;96.40;;;;;;4980836;28;20399;-76
2021/04/15 04:31:53;;;;;;;3.30;1.40;;;9.60;96.60;;;;;;4996229;28;20131;-76
2021/04/15 04:34:24;;;;;;;3.10;1.20;;;9.60;96.70;;;;;;4959283;28;20042;-76
2021/04/15 04:36:54;;;;;;;2.65;1.35;;;9.60;96.70;;;;;;4973862;28;20124;-76
2021/04/15 04:39:25;;;;;;;2.67;1.33;;;9.70;96.50;;;;;;4996116;28;20072;-75
2021/04/15 04:42:02;;;;;;;2.13;1.48;;;9.70;96.50;;;;;;4992961;28;20381;-76
2021/04/15 04:44:38;;;;;;;2.95;1.48;;;9.70;96.00;;;;;;4998478;28;20390;-75
2021/04/15 04:47:12;;;;;;;3.63;1.60;;;9.80;95.80;;;;;;4981006;28;20065;-77
2021/04/15 04:49:44;;;;;;;3.22;1.60;;;9.80;95.60;;;;;;5000367;28;20052;-77
2021/04/15 04:52:20;;;;;;;7.43;2.45;;;9.90;95.20;;;;;;4982124;28;20114;-77
2021/04/15 04:54:48;;;;;;;2.17;1.52;;;9.90;95.20;;;;;;4982890;28;20286;-77
2021/04/15 04:57:22;;;;;;;1.60;1.23;;;9.80;95.00;;;;;;4984944;28;20130;-77
2021/04/15 04:59:58;;;;;;;3.17;1.45;;;9.80;95.10;;;;;;4966672;28;20514;-77
2021/04/15 05:02:26;;;;;;;3.08;1.20;;;9.80;95.30;;;;;;4996203;28;20042;-77
2021/04/15 05:05:02;;;;;;;4.85;1.50;;;9.80;94.70;;;;;;4993247;28;20417;-77
2021/04/15 05:07:33;;;;;;;2.30;1.27;;;9.80;94.80;;;;;;4976905;28;20377;-77
2021/04/15 05:10:01;;;;;;;2.08;1.23;;;9.90;94.30;;;;;;4996801;28;20073;-77
2021/04/15 05:12:33;;;;;;;3.35;1.40;;;9.90;93.70;;;;;;4997485;28;20044;-77
2021/04/15 05:15:01;;;;;;;5.35;1.70;;;9.90;93.70;;;;;;4971138;28;20045;-77
2021/04/15 05:17:32;;;;;;;4.28;1.70;;;9.90;93.50;;;;;;4983798;28;20504;-77
2021/04/15 05:20:06;;;;;;;4.13;1.67;;;9.90;93.60;;;;;;4999825;28;20042;-75
2021/04/15 05:22:37;;;;;;;1.90;1.60;;;9.90;93.80;;;;;;4994971;28;20038;-75
2021/04/15 05:25:11;;;;;;;3.75;1.48;;;10.00;93.70;;;;;;4982972;28;20076;-75
2021/04/15 05:27:40;;;;;;;2.33;1.27;;;10.00;93.80;;;;;;4980491;28;20116;-76
2021/04/15 05:30:17;;;;;;;2.47;1.10;;;10.10;93.90;;;;;;4995807;28;20054;-76
2021/04/15 05:32:45;;;;;;;;;;;10.10;93.50;;;;;;4985201;28;20045;-75
2021/04/15 05:35:17;;;;;;;5.07;1.35;;;10.10;93.80;;;;;;4998372;28;19932;-76
2021/04/15 05:37:46;;;;;;;2.70;1.20;;;10.20;93.40;;;;;;4983682;28;20077;-76
2021/04/15 05:40:15;;;;;;;2.92;1.33;;;10.20;92.80;;;;;;4984477;28;20042;-75
2021/04/15 05:42:49;;;;;;;4.47;1.40;;;10.20;93.20;;;;;;4990168;28;20046;-76
2021/04/15 05:45:21;;;;;;;12.52;1.95;;;10.10;93.70;;;;;;4984964;28;20344;-76
2021/04/15 05:47:55;;;;;;;3.35;1.27;;;10.10;94.00;;;;;;4997726;28;20046;-76
2021/04/15 05:50:30;;;;;;;3.53;1.77;;;10.20;94.30;;;;;;5003040;28;20645;-76
2021/04/15 05:53:00;;;;;;;3.42;1.38;;;10.20;94.50;;;;;;4981431;28;20046;-76
2021/04/15 05:55:33;;;;;;;2.95;1.20;;;10.20;94.70;;;;;;4995920;28;20117;-76
2021/04/15 05:58:06;;;;;;;2.25;1.67;;;10.10;94.70;;;;;;4982377;28;20042;-76
2021/04/15 06:00:40;;;;;;;3.38;1.48;;;10.10;95.10;;;;;;4980406;28;20046;-75
2021/04/15 06:03:18;;;;;;;4.03;1.58;;;10.20;95.00;;;;;;4967299;28;20050;-76
2021/04/15 06:05:58;;;;;;;5.35;1.80;;;10.20;95.20;;;;;;4993125;28;20050;-75
2021/04/15 06:08:29;;;;;;;6.18;1.80;;;10.20;94.80;;;;;;4996240;28;20054;-75
2021/04/15 06:11:07;;;;;;;3.92;1.70;;;10.30;95.00;;;;;;4966056;28;20527;-75
2021/04/15 06:13:43;;;;;;;3.25;1.52;;;10.30;94.50;;;;;;4983607;28;20053;-76
2021/04/15 06:16:21;;;;;;;3.63;1.60;;;10.40;94.50;;;;;;4984392;28;20042;-75
2021/04/15 06:18:58;;;;;;;6.70;2.10;;;10.40;94.00;;;;;;4993560;28;20047;-76
2021/04/15 06:21:30;;;;;;;4.38;1.70;;;10.30;94.40;;;;;;4982528;28;20059;-75
2021/04/15 06:24:04;;;;;;;4.68;2.00;;;10.40;95.00;;;;;;4965627;28;20046;-75
2021/04/15 06:26:34;;;;;;;6.47;1.95;;;10.50;94.50;;;;;;4984931;28;20078;-75
2021/04/15 06:29:05;;;;;;;5.47;1.80;;;10.50;95.10;;;;;;4995547;28;20092;-76
2021/04/15 06:31:37;;;;;;;8.63;2.10;;;10.60;95.20;;;;;;4978466;28;20046;-76
2021/04/15 06:34:07;;;;;;;5.93;1.80;;;10.60;95.00;;;;;;4985471;28;20207;-76
2021/04/15 06:36:40;;;;;;;4.55;1.80;;;10.60;94.30;;;;;;4995771;28;20309;-75
2021/04/15 06:39:18;;;;;;;2.65;1.40;;;10.60;92.90;;;;;;4983594;28;20136;-76
2021/04/15 06:42:16;;;;;;;3.55;1.50;;;10.70;92.90;;;;;;4994306;28;20076;-76
2021/04/15 06:45:21;;;;;;;3.90;1.30;;;10.80;91.70;;;;;;4984001;28;20057;-75
2021/04/15 06:48:22;;;;;;;4.07;1.35;;;10.80;91.50;;;;;;4985765;28;20475;-76
2021/04/15 06:51:18;;;;;;;5.35;1.30;;;10.70;90.90;;;;;;4996946;28;20823;-75
2021/04/15 06:54:01;;;;;;;1.92;1.13;;;10.70;90.40;;;;;;4927492;28;20531;-76
2021/04/15 06:56:46;;;;;;;1.75;1.00;;;10.70;90.80;;;;;;4999759;28;20049;-76
2021/04/15 06:59:38;;;;;;;3.92;1.05;;;10.70;90.40;;;;;;4981093;28;20128;-75
2021/04/15 07:02:10;;;;;;;1.98;1.33;;;10.70;90.80;;;;;;4983947;28;20046;-76
2021/04/15 07:04:46;;;;;;;2.05;1.17;;;10.70;90.70;;;;;;4981081;28;20104;-75
2021/04/15 07:07:21;;;;;;;2.20;1.27;;;10.60;90.90;;;;;;4983859;28;20050;-76
2021/04/15 07:10:22;;;;;;;1.95;1.25;;;10.70;90.90;;;;;;4977741;28;20111;-76
2021/04/15 07:13:35;;;;;;;2.47;1.40;;;10.80;91.10;;;;;;4982649;28;20073;-76
2021/04/15 07:16:33;;;;;;;4.32;2.05;;;10.70;90.50;;;;;;4992372;28;20046;-76
2021/04/15 07:19:44;;;;;;;2.67;1.00;;;10.70;91.00;;;;;;4964818;28;20073;-75
2021/04/15 07:22:52;;;;;;;3.53;1.67;;;10.80;90.80;;;;;;4978747;28;20133;-76
2021/04/15 07:25:34;;;;;;;2.78;1.42;;;10.70;90.20;;;;;;4974086;28;20038;-77
2021/04/15 07:28:35;;;;;;;2.60;1.70;;;10.70;90.40;;;;;;4969077;28;20803;-76
2021/04/15 07:31:36;;;;;;;2.75;1.45;;;10.70;90.70;;;;;;4981246;28;20565;-76
2021/04/15 07:34:24;;;;;;;2.58;1.65;;;10.50;90.70;;;;;;4982551;28;20129;-76
2021/04/15 07:37:39;;;;;;;2.70;1.70;;;10.60;92.10;;;;;;4981990;28;20056;-76
2021/04/15 07:40:42;;;;;;;3.38;1.42;;;10.70;91.60;;;;;;4965060;28;20058;-78
2021/04/15 07:43:30;;;;;;;3.05;1.60;;;10.70;92.00;;;;;;4954685;28;20084;-75
2021/04/15 07:46:10;;;;;;;3.75;1.70;;;10.90;91.20;;;;;;4947500;28;20534;-76
2021/04/15 07:49:10;;;;;;;3.88;1.60;;;11.00;90.50;;;;;;4974338;28;20607;-77
2021/04/15 07:52:12;;;;;;;2.95;1.75;;;11.20;89.80;;;;;;4939256;28;20038;-77
2021/04/15 07:55:18;;;;;;;4.78;1.60;;;11.30;89.20;;;;;;4939994;28;20047;-77
2021/04/15 07:58:16;;;;;;;4.55;2.00;;;11.40;88.90;;;;;;4958129;28;20046;-75
2021/04/15 08:01:31;;;;;;;3.83;1.85;;;11.50;87.10;;;;;;4967709;28;20567;-75
2021/04/15 08:04:40;;;;;;;2.55;1.73;;;11.60;86.20;;;;;;4885044;29;20139;-76
2021/04/15 08:07:45;;;;;;;2.92;1.70;;;11.80;84.80;;;;;;4812510;29;20048;-76
2021/04/15 08:10:40;;;;;;;4.65;1.70;;;11.80;84.50;;;;;;4941527;28;20046;-76
2021/04/15 08:13:40;;;;;;;3.42;1.60;;;11.80;85.10;;;;;;4970082;28;20041;-76
2021/04/15 08:16:33;;;;;;;3.28;2.03;;;11.70;84.50;;;;;;4952510;28;20073;-77
2021/04/15 08:19:29;;;;;;;2.47;1.63;;;11.80;83.00;;;;;;4971046;28;20047;-76
2021/04/15 08:22:06;;;;;;;1.80;1.30;;;11.70;81.40;;;;;;4957267;28;20038;-76
2021/04/15 08:24:50;;;;;;;2.30;1.48;;;11.80;81.10;;;;;;4970694;28;20042;-77
2021/04/15 08:27:45;;;;;;;2.85;1.50;;;11.80;80.70;;;;;;4973115;28;20050;-76
2021/04/15 08:30:45;;;;;;;2.83;1.50;;;11.90;80.80;;;;;;4966329;28;20051;-76
2021/04/15 08:33:24;;;;;;;2.88;1.38;;;12.00;81.30;;;;;;4958660;28;20093;-75
2021/04/15 08:36:10;;;;;;;3.15;1.55;;;12.20;80.50;;;;;;4951342;28;20631;-75
2021/04/15 08:38:50;;;;;;;3.03;1.50;;;12.30;80.20;;;;;;4964772;28;20038;-76
2021/04/15 08:41:30;;;;;;;2.50;1.70;;;12.30;80.20;;;;;;4980320;28;20054;-76
2021/04/15 08:44:21;;;;;;;2.25;1.40;;;12.30;79.20;;;;;;4971140;28;20046;-76
2021/04/15 08:46:59;;;;;;;3.78;1.48;;;12.40;79.00;;;;;;4975679;28;20076;-76
2021/04/15 08:49:35;;;;;;;1.85;1.20;;;12.40;78.10;;;;;;4990709;28;20591;-76
2021/04/15 08:52:16;;;;;;;1.97;1.10;;;12.40;77.10;;;;;;4980260;28;20046;-76
2021/04/15 08:54:58;;;;;;;1.80;1.20;;;12.40;77.20;;;;;;4973271;28;20305;-76
2021/04/15 08:57:38;;;;;;;1.60;0.80;;;12.40;77.20;;;;;;4969720;28;20072;-76
2021/04/15 09:00:18;;;;;;;1.60;0.60;;;12.40;76.20;;;;;;4966221;28;20050;-76
2021/04/15 09:03:09;;;;;;;2.67;1.00;;;12.40;75.40;;;;;;4979722;28;20057;-76
2021/04/15 09:06:00;;;;;;;1.13;0.60;;;12.30;73.60;;;;;;4965127;28;20061;-76
2021/04/15 09:08:35;;;;;;;1.63;0.90;;;12.40;77.30;;;;;;4994764;28;20057;-76
2021/04/15 09:11:10;;;;;;;3.35;0.80;;;12.60;77.00;;;;;;4964938;28;20046;-76
2021/04/15 09:13:48;;;;;;;3.35;1.10;;;12.70;77.10;;;;;;5001516;28;20064;-76
2021/04/15 09:16:28;;;;;;;1.50;0.70;;;12.80;74.80;;;;;;4979626;28;20050;-76
2021/04/15 09:19:19;;;;;;;1.40;0.80;;;12.90;75.60;;;;;;4984632;28;20108;-75
2021/04/15 09:21:54;;;;;;;2.00;0.80;;;13.00;75.00;;;;;;4995137;28;20038;-76
2021/04/15 09:24:35;;;;;;;1.65;0.80;;;13.00;73.90;;;;;;4964733;28;20049;-75
2021/04/15 09:27:31;;;;;;;1.77;0.90;;;13.00;74.90;;;;;;4983229;28;20064;-79
2021/04/15 09:30:29;;;;;;;2.42;1.20;;;13.00;74.30;;;;;;4994462;28;20096;-76
2021/04/15 09:33:03;;;;;;;1.75;0.98;;;12.90;75.60;;;;;;4979496;28;20046;-77
2021/04/15 09:35:45;;;;;;;1.73;0.90;;;12.70;75.40;;;;;;5000644;28;20038;-76
2021/04/15 09:38:48;;;;;;;1.90;1.13;;;12.60;75.40;;;;;;4984603;28;20054;-76
2021/04/15 09:41:49;;;;;;;2.67;1.08;;;12.60;76.20;;;;;;4971010;28;20050;-77
2021/04/15 09:44:42;;;;;;;4.32;1.27;;;12.60;76.80;;;;;;4966125;28;20481;-76
2021/04/15 09:47:24;;;;;;;3.50;1.30;;;12.60;77.80;;;;;;4980391;28;20037;-75
2021/04/15 09:50:02;;;;;;;4.25;1.50;;;12.60;80.80;;;;;;4979479;28;20045;-76
2021/04/15 09:53:02;;;;;;;3.90;1.85;;;12.60;83.20;;;;;;4994394;28;20084;-76
2021/04/15 09:55:51;;;;;;;2.80;1.50;;;12.70;85.80;;;;;;4998971;28;20050;-76
2021/04/15 09:58:35;;;;;;;4.05;1.25;;;12.80;86.20;;;;;;4963858;28;20050;-76
2021/04/15 10:01:08;;;;;;;2.90;1.80;;;13.00;86.50;;;;;;4981183;28;20046;-76
2021/04/15 10:03:46;;;;;;;2.15;1.25;;;13.10;87.70;;;;;;4966390;28;20045;-77
2021/04/15 10:06:21;;;;;;;3.55;1.33;;;13.00;88.60;;;;;;4978657;28;20411;-76
2021/04/15 10:09:23;;;;;;;2.50;1.60;;;13.00;88.20;;;;;;4994705;28;20388;-76
2021/04/15 10:12:07;;;;;;;3.35;1.60;;;13.10;90.40;;;;;;4986529;28;20665;-76
2021/04/15 10:14:49;;;;;;;5.30;1.50;;;13.30;89.00;;;;;;4977817;28;20065;-76
2021/04/15 10:17:32;;;;;;;2.40;1.27;;;13.50;86.90;;;;;;4992691;28;20408;-75
2021/04/15 10:20:33;;;;;;;2.78;1.15;;;13.70;86.90;;;;;;4991954;28;20492;-76
2021/04/15 10:23:35;;;;;;;2.40;1.20;;;14.00;86.10;;;;;;4997375;28;20069;-76
2021/04/15 10:26:18;;;;;;;4.55;1.85;;;14.10;85.20;;;;;;4956092;28;20069;-76
2021/04/15 10:29:14;;;;;;;5.28;1.50;;;14.20;82.60;;;;;;4999898;28;20544;-76
2021/04/15 10:32:12;;;;;;;4.47;2.00;;;14.20;84.10;;;;;;4992436;28;20060;-76
2021/04/15 10:35:19;;;;;;;2.08;1.15;;;14.30;82.30;;;;;;4971842;28;20085;-76
2021/04/15 10:38:31;;;;;;;4.35;1.27;;;14.50;82.00;;;;;;4995010;28;20148;-76
2021/04/15 10:41:20;;;;;;;2.10;1.08;;;14.70;80.00;;;;;;4973312;28;20138;-76
2021/04/15 10:44:29;;;;;;;2.35;0.85;;;14.80;79.80;;;;;;4982119;28;20108;-76
2021/04/15 10:47:14;;;;;;;2.95;1.13;;;14.90;78.90;;;;;;5000131;28;20373;-76
2021/04/15 10:49:53;;;;;;;3.85;0.80;;;15.00;79.00;;;;;;4996298;28;20053;-76
2021/04/15 10:52:53;;;;;;;1.25;0.70;;;15.10;79.50;;;;;;4985155;28;20235;-77
2021/04/15 10:55:25;;;;;;;2.00;0.70;;;15.10;79.00;;;;;;4980695;28;20038;-77
2021/04/15 10:57:53;;;;;;;2.25;1.02;;;15.00;78.90;;;;;;4963697;28;20045;-77
2021/04/15 11:00:27;;;;;;;2.72;0.90;;;14.90;78.70;;;;;;4997955;28;20084;-77
2021/04/15 11:02:57;;;;;;;1.45;1.02;;;14.90;78.20;;;;;;4968903;28;20049;-76
2021/04/15 11:05:29;;;;;;;3.05;1.15;;;14.90;79.30;;;;;;4985379;28;20127;-77
2021/04/15 11:08:06;;;;;;;4.50;1.13;;;14.90;79.20;;;;;;4960882;28;20137;-76
2021/04/15 11:10:36;;;;;;;2.70;0.93;;;14.90;79.30;;;;;;4983872;28;20324;-76
2021/04/15 11:13:19;;;;;;;1.98;1.00;;;14.90;78.50;;;;;;4988862;28;20038;-76
2021/04/15 11:15:49;;;;;;;2.22;0.90;;;14.90;78.00;;;;;;4984219;28;20136;-76
2021/04/15 11:18:29;;;;;;;5.68;1.83;;;14.60;78.20;;;;;;4982985;28;20050;-77
2021/04/15 11:21:15;;;;;;;2.85;1.15;;;14.60;78.90;;;;;;4996650;28;20504;-76
2021/04/15 11:23:43;;;;;;;3.13;1.10;;;14.80;78.50;;;;;;4961838;28;20543;-74
2021/04/15 11:26:23;;;;;;;2.80;1.48;;;14.90;78.00;;;;;;5000376;28;20041;-76
2021/04/15 11:28:53;;;;;;;1.95;1.20;;;15.10;77.70;;;;;;4996489;28;20095;-76
2021/04/15 11:31:39;;;;;;;2.90;1.30;;;15.30;77.30;;;;;;4980318;28;20052;-76
2021/04/15 11:34:14;;;;;;;3.85;1.30;;;15.40;76.60;;;;;;4982526;28;20301;-76
2021/04/15 11:36:51;;;;;;;2.45;1.55;;;15.40;75.50;;;;;;4983778;28;20475;-76
2021/04/15 11:39:23;;;;;;;2.95;1.50;;;15.40;76.20;;;;;;4983386;28;20521;-76
2021/04/15 11:41:59;;;;;;;2.80;1.52;;;15.50;76.40;;;;;;4992250;28;20505;-76
2021/04/15 11:44:33;;;;;;;2.38;0.90;;;15.30;76.20;;;;;;4979097;28;20065;-77
2021/04/15 11:47:04;;;;;;;2.70;1.60;;;15.20;76.00;;;;;;4982631;28;20060;-77
2021/04/15 11:49:36;;;;;;;2.53;1.30;;;15.30;76.50;;;;;;4996055;28;20444;-76
2021/04/15 11:52:23;;;;;;;3.83;1.90;;;15.40;76.40;;;;;;4981054;28;20054;-76
2021/04/15 11:55:21;;;;;;;2.92;1.88;;;15.40;76.50;;;;;;4979147;28;20510;-76
2021/04/15 11:57:56;;;;;;;2.50;1.13;;;15.40;76.80;;;;;;4990318;28;20078;-77
2021/04/15 12:00:27;;;;;;;2.92;1.50;;;15.50;75.80;;;;;;4996804;28;20042;-77
2021/04/15 12:03:09;;;;;;;2.47;1.30;;;15.60;76.00;;;;;;4978900;28;20168;-76
2021/04/15 12:05:40;;;;;;;2.47;1.50;;;15.40;75.60;;;;;;4993981;28;20431;-77
2021/04/15 12:08:15;;;;;;;4.63;1.90;;;15.40;76.00;;;;;;4981038;28;20164;-77
2021/04/15 12:10:46;;;;;;;4.25;1.50;;;15.70;76.40;;;;;;4980704;28;20049;-77
2021/04/15 12:13:20;;;;;;;3.08;1.55;;;16.10;75.60;;;;;;4982233;28;20049;-77
2021/04/15 12:15:54;;;;;;;4.05;1.30;;;16.40;74.90;;;;;;4960678;28;20053;-77
2021/04/15 12:18:29;;;;;;;3.50;1.17;;;16.50;75.40;;;;;;4980775;28;20048;-77
2021/04/15 12:21:05;;;;;;;3.80;1.23;;;16.10;75.40;;;;;;4980537;28;20041;-77
2021/04/15 12:23:43;;;;;;;3.72;1.85;;;15.80;76.50;;;;;;4993606;28;20046;-77
2021/04/15 12:26:38;;;;;;;3.05;1.90;;;15.60;76.30;;;;;;4975257;28;20562;-77
2021/04/15 12:29:12;;;;;;;2.85;1.50;;;15.40;77.20;;;;;;4982371;28;20057;-77
2021/04/15 12:31:44;;;;;;;3.53;1.40;;;15.40;78.00;;;;;;4995156;28;20073;-77
2021/04/15 12:34:35;;;;;;;2.17;1.02;;;15.40;77.80;;;;;;4999550;28;20558;-77
2021/04/15 12:37:08;;;;;;;2.15;1.40;;;15.40;77.30;;;;;;4981057;28;20308;-77
2021/04/15 12:39:50;;;;;;;4.65;1.67;;;15.70;77.50;;;;;;4977169;28;20070;-77
2021/04/15 12:42:22;;;;;;;7.75;3.15;;;15.80;77.10;;;;;;4980716;28;20054;-77
2021/04/15 12:44:53;;;;;;;3.90;1.85;;;15.70;77.70;;;;;;4981431;28;20064;-77
2021/04/15 12:47:22;;;;;;;1.27;0.85;;;15.90;77.60;;;;;;4999089;28;20052;-76
2021/04/15 12:49:51;;;;;;;3.95;1.60;;;16.00;76.30;;;;;;4991817;28;20039;-77
2021/04/15 12:52:28;;;;;;;3.83;2.10;;;15.80;76.30;;;;;;4976567;28;20046;-76
2021/04/15 12:54:58;;;;;;;1.90;1.02;;;15.60;77.80;;;;;;4996732;28;20046;-77
2021/04/15 12:57:28;;;;;;;2.72;0.88;;;15.80;76.70;;;;;;5000009;28;20492;-77
2021/04/15 13:00:01;;;;;;;4.45;2.80;;;15.90;76.60;;;;;;4998966;28;20038;-77
2021/04/15 13:02:32;;;;;;;3.53;1.35;;;15.90;75.80;;;;;;4983831;28;20060;-76
2021/04/15 13:05:05;;;;;;;2.50;1.42;;;15.80;77.50;;;;;;4970951;28;20134;-76
2021/04/15 13:07:36;;;;;;;2.50;1.20;;;15.80;77.30;;;;;;4982255;28;20061;-76
2021/04/15 13:10:38;;;;;;;2.08;1.27;;;15.80;76.90;;;;;;4985528;28;20050;-76
2021/04/15 13:13:41;;;;;;;2.95;1.20;;;15.90;76.70;;;;;;5000337;28;20058;-76
2021/04/15 13:16:42;;;;;;;4.55;1.42;;;16.30;75.90;;;;;;4939853;28;20049;-77
2021/04/15 13:19:49;;;;;;;5.00;2.05;;;16.40;75.50;;;;;;4971558;28;20069;-76
2021/04/15 13:22:27;;;;;;;2.93;1.30;;;16.40;75.90;;;;;;4970759;28;20074;-76
2021/04/15 13:25:21;;;;;;;3.17;1.55;;;16.30;75.60;;;;;;4982158;28;20593;-76
2021/04/15 13:28:11;;;;;;;2.35;1.08;;;16.50;74.00;;;;;;4990524;28;20423;-76
2021/04/15 13:30:58;;;;;;;3.15;1.80;;;16.70;73.60;;;;;;4993144;28;20046;-76
2021/04/15 13:34:04;;;;;;;2.08;0.85;;;17.20;74.00;;;;;;5000316;28;20488;-76
2021/04/15 13:36:33;;;;;;;2.28;1.00;;;17.40;72.60;;;;;;4973101;28;20046;-76
2021/04/15 13:39:28;;;;;;;1.33;0.88;;;17.70;71.80;;;;;;4989880;28;20465;-76
2021/04/15 13:42:05;;;;;;;3.88;0.80;;;18.00;70.20;;;;;;4985758;28;20401;-76
2021/04/15 13:44:51;;;;;;;2.60;0.68;;;18.30;68.90;;;;;;4982854;28;20492;-76
2021/04/15 13:47:58;;;;;;;1.48;0.70;;;18.70;69.70;;;;;;4995836;28;20046;-76
2021/04/15 13:51:14;;;;;;;3.85;0.93;;;19.10;69.90;;;;;;5000597;28;20068;-76
2021/04/15 13:53:55;;;;;;;1.30;0.88;;;19.30;69.40;;;;;;4984084;28;20455;-76